McClean, Nebraska
Current Conditions -  °F | °C
As of 2:35 PM on Saturday 20 Dec 2014 (Local Time) from KLCG Reporting Station
Overcast Overcast  
Wind Chill: 25°   Ceiling: 500
Heat Index: 33°   Visibility: 7mi
Dew Point: 31°   Wind: 9mph
Humidity: 92%   Direction: 140°SE
Pressure: 30.02"   Gusts: NA
Location:  42.395°N, 97.4752°W
Report Text: KLCG 202035Z AUTO 14008KT 7SM OVC005 00/M01 A3002 RMK AO2 T00031008
Loading
Personal Weather Stations






























Interactive Weather Map New forecast layout! Learn more

10-Day Weather Forecast

Advertisements
Track Severe Weather on mobile